createdAt,value
2018-04-10T00:00:37.378Z,0.00
2018-04-10T00:01:37.298Z,0.00
2018-04-10T00:02:37.302Z,0.00
2018-04-10T00:03:37.294Z,0.00
2018-04-10T00:04:37.281Z,0.00
2018-04-10T00:05:37.278Z,0.00
2018-04-10T00:06:37.275Z,0.00
2018-04-10T00:07:37.276Z,0.00
2018-04-10T00:08:37.267Z,0.00
2018-04-10T00:09:37.263Z,0.00
2018-04-10T00:10:37.256Z,0.00
2018-04-10T00:11:37.255Z,0.00
2018-04-10T00:12:37.248Z,0.00
2018-04-10T00:13:37.242Z,0.00
2018-04-10T00:14:37.237Z,0.00
2018-04-10T00:15:37.233Z,0.00
2018-04-10T00:16:37.227Z,0.00
2018-04-10T00:17:37.225Z,0.00
2018-04-10T00:18:37.217Z,0.00
2018-04-10T00:19:37.220Z,0.00
2018-04-10T00:20:37.201Z,0.00
2018-04-10T00:21:37.205Z,0.00
2018-04-10T00:22:37.208Z,0.00
2018-04-10T00:23:37.195Z,0.00
2018-04-10T00:24:37.192Z,0.00
2018-04-10T00:25:37.186Z,0.00
2018-04-10T00:26:37.179Z,0.00
2018-04-10T00:27:37.176Z,0.00
2018-04-10T00:28:37.179Z,0.00
2018-04-10T00:29:37.167Z,0.00
2018-04-10T00:30:37.162Z,0.00
2018-04-10T00:31:37.154Z,0.00
2018-04-10T00:32:37.145Z,0.00
2018-04-10T00:33:37.142Z,0.00
2018-04-10T00:34:37.150Z,0.00
2018-04-10T00:35:37.135Z,0.00
2018-04-10T00:36:37.130Z,0.00
2018-04-10T00:37:37.117Z,0.00
2018-04-10T00:38:37.122Z,0.00
2018-04-10T00:39:37.108Z,0.00
2018-04-10T00:40:37.109Z,0.00
2018-04-10T00:41:37.111Z,0.00
2018-04-10T00:42:37.113Z,0.00
2018-04-10T00:43:37.086Z,0.00
2018-04-10T00:44:37.089Z,0.00
2018-04-10T00:45:37.202Z,0.00
2018-04-10T00:46:37.086Z,0.00
2018-04-10T00:47:37.073Z,0.00
2018-04-10T00:48:37.072Z,0.00
2018-04-10T00:49:37.058Z,0.00
2018-04-10T00:50:37.068Z,0.00
2018-04-10T00:51:37.050Z,0.00
2018-04-10T00:52:37.042Z,0.00
2018-04-10T00:53:37.043Z,0.00
2018-04-10T00:54:37.035Z,0.00
2018-04-10T00:55:37.034Z,0.00
2018-04-10T00:56:37.026Z,0.00
2018-04-10T00:57:37.034Z,0.00
2018-04-10T00:58:37.013Z,0.00
2018-04-10T00:59:37.023Z,0.00
2018-04-10T01:00:37.014Z,0.00
2018-04-10T01:01:37.035Z,0.00
2018-04-10T01:02:36.990Z,0.00
2018-04-10T01:03:36.993Z,0.00
2018-04-10T01:04:36.991Z,0.00
2018-04-10T01:05:36.977Z,0.00
2018-04-10T01:06:36.971Z,0.00
2018-04-10T01:07:36.982Z,0.00
2018-04-10T01:08:36.967Z,0.00
2018-04-10T01:09:36.973Z,0.00
2018-04-10T01:10:36.956Z,0.00
2018-04-10T01:11:36.949Z,0.00
2018-04-10T01:12:36.944Z,0.00
2018-04-10T01:13:36.941Z,0.00
2018-04-10T01:14:36.941Z,0.00
2018-04-10T01:15:36.935Z,0.00
2018-04-10T01:16:36.931Z,0.00
2018-04-10T01:17:36.925Z,0.00
2018-04-10T01:18:36.911Z,0.00
2018-04-10T01:19:36.913Z,0.00
2018-04-10T01:20:36.914Z,0.00
2018-04-10T01:21:36.901Z,0.00
2018-04-10T01:22:36.930Z,0.00
2018-04-10T01:23:36.893Z,0.00
2018-04-10T01:24:36.894Z,0.00
2018-04-10T01:25:36.883Z,0.00
2018-04-10T01:26:36.881Z,0.00
2018-04-10T01:27:36.873Z,0.00
2018-04-10T01:28:36.869Z,0.00
2018-04-10T01:29:36.871Z,0.00
2018-04-10T02:02:00.219Z,0.00
2018-04-10T02:03:00.188Z,0.00
2018-04-10T02:04:53.119Z,0.00
2018-04-10T02:05:53.096Z,0.00
2018-04-10T02:07:46.046Z,0.00
2018-04-10T02:08:46.000Z,0.00
2018-04-10T02:10:38.963Z,0.00
2018-04-10T02:11:38.944Z,0.00
2018-04-10T02:13:31.911Z,0.00
2018-04-10T02:14:31.865Z,0.00
2018-04-10T02:16:24.776Z,0.00
2018-04-10T02:17:24.786Z,0.00
2018-04-10T02:19:17.701Z,0.00
2018-04-10T02:20:17.668Z,0.00
2018-04-10T02:21:17.667Z,0.00
2018-04-10T02:22:17.651Z,0.00
2018-04-10T02:23:17.649Z,0.00
2018-04-10T02:24:17.651Z,0.00
2018-04-10T02:25:17.644Z,0.00
2018-04-10T02:26:17.639Z,0.00
2018-04-10T02:27:17.632Z,0.00
2018-04-10T02:28:17.629Z,0.00
2018-04-10T02:29:17.611Z,0.00
2018-04-10T02:30:17.613Z,0.00
2018-04-10T02:31:17.604Z,0.00
2018-04-10T02:32:17.602Z,0.00
2018-04-10T02:33:17.598Z,0.00
2018-04-10T02:34:17.597Z,0.00
2018-04-10T02:35:17.589Z,0.00
2018-04-10T02:36:17.578Z,0.00
2018-04-10T02:37:17.578Z,0.00
2018-04-10T02:38:17.576Z,0.00
2018-04-10T02:39:17.565Z,0.00
2018-04-10T02:40:17.561Z,0.00
2018-04-10T02:41:17.576Z,0.00
2018-04-10T02:42:17.553Z,0.00
2018-04-10T02:43:17.552Z,0.00
2018-04-10T02:44:17.550Z,0.00
2018-04-10T02:45:17.539Z,0.00
2018-04-10T02:46:17.528Z,0.00
2018-04-10T02:47:17.524Z,0.00
2018-04-10T02:48:17.523Z,0.00
2018-04-10T02:49:17.513Z,0.00
2018-04-10T02:50:17.511Z,0.00
2018-04-10T02:51:17.513Z,0.00
2018-04-10T02:52:17.503Z,0.00
2018-04-10T02:53:17.489Z,0.00
2018-04-10T02:54:17.490Z,0.00
2018-04-10T02:55:17.481Z,0.00
2018-04-10T02:56:17.477Z,0.00
2018-04-10T02:57:17.479Z,0.00
2018-04-10T02:58:17.467Z,0.00
2018-04-10T02:59:17.455Z,0.00
2018-04-10T03:00:17.461Z,0.00
2018-04-10T03:01:17.454Z,0.00
2018-04-10T03:02:17.460Z,0.00
2018-04-10T03:03:17.476Z,0.00
2018-04-10T03:04:17.439Z,0.00
2018-04-10T03:05:17.436Z,0.00
2018-04-10T03:06:17.429Z,0.00
2018-04-10T03:07:17.423Z,0.00
2018-04-10T03:08:17.416Z,0.00
2018-04-10T03:09:17.409Z,0.00
2018-04-10T03:10:17.406Z,0.00
2018-04-10T03:11:17.406Z,0.00
2018-04-10T03:12:17.406Z,0.00
2018-04-10T03:13:17.390Z,0.00
2018-04-10T03:14:17.386Z,0.00
2018-04-10T03:15:17.382Z,0.00
2018-04-10T03:16:17.376Z,0.00
2018-04-10T03:17:17.363Z,0.00
2018-04-10T03:18:17.362Z,0.00
2018-04-10T03:19:17.362Z,0.00
2018-04-10T03:20:17.352Z,0.00
2018-04-10T03:21:17.343Z,0.00
2018-04-10T03:22:17.339Z,0.00
2018-04-10T03:23:17.349Z,0.00
2018-04-10T03:24:17.339Z,0.00
2018-04-10T03:25:17.325Z,0.00
2018-04-10T03:26:17.316Z,0.00
2018-04-10T03:27:17.323Z,0.00
2018-04-10T03:28:17.320Z,0.00
2018-04-10T03:29:17.307Z,0.00
2018-04-10T03:30:17.296Z,0.00
2018-04-10T03:31:17.296Z,0.00
2018-04-10T03:32:17.286Z,0.00
2018-04-10T03:33:17.280Z,0.00
2018-04-10T03:34:17.273Z,0.00
2018-04-10T03:35:17.292Z,0.00
2018-04-10T03:36:17.272Z,0.00
2018-04-10T03:37:17.260Z,0.00
2018-04-10T03:38:17.250Z,0.00
2018-04-10T03:39:17.246Z,0.00
2018-04-10T03:40:17.242Z,0.00
2018-04-10T03:41:17.243Z,0.00
2018-04-10T03:42:17.236Z,0.00
2018-04-10T03:43:17.218Z,0.00
2018-04-10T03:44:17.216Z,0.00
2018-04-10T03:45:17.207Z,0.00
2018-04-10T03:46:17.205Z,0.00
2018-04-10T03:47:17.196Z,0.00
2018-04-10T03:48:17.245Z,0.00
2018-04-10T03:49:17.180Z,0.00
2018-04-10T03:50:17.185Z,0.00
2018-04-10T03:51:17.224Z,0.00
2018-04-10T03:52:17.169Z,0.00
2018-04-10T03:53:17.159Z,0.00
2018-04-10T03:54:17.172Z,0.00
2018-04-10T03:55:17.173Z,0.00
2018-04-10T03:56:17.136Z,0.00
2018-04-10T03:57:17.133Z,0.00
2018-04-10T03:58:17.137Z,0.00
2018-04-10T03:59:17.126Z,0.00
2018-04-10T04:00:17.119Z,0.00
2018-04-10T04:01:17.118Z,0.00
2018-04-10T04:02:17.098Z,0.00
2018-04-10T04:03:17.103Z,0.00
2018-04-10T04:04:17.098Z,0.00
2018-04-10T04:05:17.097Z,0.00
2018-04-10T04:06:17.095Z,0.00
2018-04-10T04:07:17.077Z,0.00
2018-04-10T04:08:17.065Z,0.00
2018-04-10T04:09:17.054Z,0.00
2018-04-10T04:10:17.056Z,0.00
2018-04-10T04:11:17.049Z,0.00
2018-04-10T04:12:17.045Z,4.00
2018-04-10T04:13:17.032Z,4.00
2018-04-10T04:14:17.032Z,0.00
2018-04-10T04:15:17.029Z,4.00
2018-04-10T04:16:17.017Z,4.00
2018-04-10T04:17:17.008Z,4.00
2018-04-10T04:18:16.997Z,4.00
2018-04-10T04:19:17.006Z,8.00
2018-04-10T04:20:16.988Z,12.00
2018-04-10T04:21:16.987Z,8.00
2018-04-10T04:22:16.980Z,12.00
2018-04-10T04:23:16.974Z,12.00
2018-04-10T04:24:17.002Z,20.00
2018-04-10T04:25:16.957Z,24.00
2018-04-10T04:26:16.953Z,24.00
2018-04-10T04:27:16.947Z,32.00
2018-04-10T04:28:16.939Z,36.00
2018-04-10T04:29:16.935Z,44.00
2018-04-10T04:30:16.927Z,52.00
2018-04-10T04:31:16.927Z,56.00
2018-04-10T04:32:16.912Z,68.00
2018-04-10T04:33:16.909Z,76.00
2018-04-10T04:34:16.902Z,88.00
2018-04-10T04:35:16.900Z,100.00
2018-04-10T04:36:16.891Z,112.00
2018-04-10T04:37:16.889Z,128.00
2018-04-10T04:38:16.870Z,144.00
2018-04-10T04:39:16.885Z,160.00
2018-04-10T04:40:16.863Z,184.00
2018-04-10T04:41:16.863Z,204.00
2018-04-10T04:42:16.849Z,224.00
2018-04-10T04:43:16.864Z,248.00
2018-04-10T04:44:16.847Z,268.00
2018-04-10T04:45:16.836Z,296.00
2018-04-10T04:46:16.827Z,324.00
2018-04-10T04:47:16.819Z,348.00
2018-04-10T04:48:16.818Z,380.00
2018-04-10T04:49:16.822Z,408.00
2018-04-10T04:50:16.814Z,452.00
2018-04-10T04:51:16.797Z,492.00
2018-04-10T04:52:16.787Z,540.00
2018-04-10T04:53:16.785Z,584.00
2018-04-10T04:54:16.778Z,632.00
2018-04-10T04:55:16.774Z,680.00
2018-04-10T04:56:16.769Z,732.00
2018-04-10T04:57:16.770Z,784.00
2018-04-10T04:58:16.764Z,836.00
2018-04-10T04:59:16.739Z,892.00
2018-04-10T05:00:16.745Z,944.00
2018-04-10T05:01:16.735Z,1004.00
2018-04-10T05:02:16.735Z,1068.00
2018-04-10T05:03:16.726Z,1132.00
2018-04-10T05:04:16.727Z,1204.00
2018-04-10T05:05:16.719Z,1276.00
2018-04-10T05:06:16.702Z,1348.00
2018-04-10T05:07:16.717Z,1424.00
2018-04-10T05:08:16.704Z,1500.00
2018-04-10T05:09:16.696Z,1576.00
2018-04-10T05:10:16.690Z,1652.00
2018-04-10T05:11:16.681Z,1728.00
2018-04-10T05:12:17.204Z,1804.00
2018-04-10T05:13:16.666Z,1884.00
2018-04-10T05:14:16.660Z,1972.00
2018-04-10T05:15:16.655Z,2064.00
2018-04-10T05:16:16.651Z,2164.00
2018-04-10T05:17:16.644Z,2264.00
2018-04-10T05:18:16.671Z,2364.00
2018-04-10T05:19:16.665Z,2472.00
2018-04-10T05:20:16.636Z,2576.00
2018-04-10T05:21:16.631Z,2684.00
2018-04-10T05:22:16.619Z,2784.00
2018-04-10T05:23:16.613Z,2888.00
2018-04-10T05:24:16.624Z,3000.00
2018-04-10T05:25:16.608Z,3120.00
2018-04-10T05:26:16.623Z,3240.00
2018-04-10T05:27:16.586Z,3360.00
2018-04-10T05:28:16.589Z,3488.00
2018-04-10T05:29:16.587Z,3624.00
2018-04-10T05:30:16.591Z,3756.00
2018-04-10T05:31:16.580Z,3900.00
2018-04-10T05:32:16.586Z,4048.00
2018-04-10T05:33:16.571Z,4184.00
2018-04-10T05:34:16.565Z,4296.00
2018-04-10T05:35:16.553Z,4412.00
2018-04-10T05:36:16.557Z,4520.00
2018-04-10T05:37:16.550Z,4616.00
2018-04-10T05:38:16.541Z,4708.00
2018-04-10T05:39:16.543Z,4780.00
2018-04-10T05:40:16.535Z,4840.00
2018-04-10T05:41:16.556Z,4892.00
2018-04-10T05:42:16.523Z,4960.00
2018-04-10T05:43:16.526Z,5064.00
2018-04-10T05:44:16.519Z,5164.00
2018-04-10T05:45:16.513Z,5216.00
2018-04-10T05:46:16.505Z,5264.00
2018-04-10T05:47:16.501Z,5308.00
2018-04-10T05:48:16.505Z,5384.00
2018-04-10T05:49:16.489Z,5464.00
2018-04-10T05:50:16.496Z,5544.00
2018-04-10T05:51:16.486Z,5648.00
2018-04-10T05:52:16.487Z,5756.00
2018-04-10T05:53:16.483Z,5900.00
2018-04-10T05:54:16.483Z,6064.00
2018-04-10T05:55:16.477Z,6252.00
2018-04-10T05:56:16.465Z,6444.00
2018-04-10T05:57:16.462Z,6640.00
2018-04-10T05:58:16.458Z,6832.00
2018-04-10T05:59:16.456Z,7020.00
2018-04-10T06:00:16.448Z,7196.00
2018-04-10T06:01:16.444Z,7360.00
2018-04-10T06:02:16.449Z,7508.00
2018-04-10T06:03:16.458Z,7696.00
2018-04-10T06:04:16.448Z,7892.00
2018-04-10T06:05:16.433Z,8072.00
2018-04-10T06:06:16.436Z,8252.00
2018-04-10T06:07:16.443Z,8396.00
2018-04-10T06:08:16.423Z,8524.00
2018-04-10T06:09:16.420Z,8632.00
2018-04-10T06:10:16.414Z,8760.00
2018-04-10T06:11:16.413Z,8916.00
2018-04-10T06:12:16.414Z,9048.00
2018-04-10T06:13:16.408Z,9192.00
2018-04-10T06:14:16.408Z,9364.00
2018-04-10T06:15:16.402Z,9524.00
2018-04-10T06:16:16.408Z,9660.00
2018-04-10T06:17:16.429Z,9780.00
2018-04-10T06:18:16.390Z,9832.00
2018-04-10T06:19:16.401Z,9960.00
2018-04-10T06:20:16.398Z,10172.00
2018-04-10T06:21:16.392Z,10248.00
2018-04-10T06:22:16.389Z,10328.00
2018-04-10T06:23:16.384Z,10456.00
2018-04-10T06:24:16.387Z,10516.00
2018-04-10T06:25:16.378Z,10624.00
2018-04-10T06:26:16.382Z,10760.00
2018-04-10T06:27:16.370Z,10924.00
2018-04-10T06:28:16.372Z,11040.00
2018-04-10T06:29:16.363Z,11164.00
2018-04-10T06:30:16.366Z,11252.00
2018-04-10T06:31:16.358Z,11308.00
2018-04-10T06:32:16.365Z,11372.00
2018-04-10T06:33:16.350Z,11488.00
2018-04-10T06:34:16.363Z,11632.00
2018-04-10T06:35:16.366Z,11728.00
2018-04-10T06:36:16.353Z,11832.00
2018-04-10T06:37:16.367Z,11952.00
2018-04-10T06:38:16.345Z,12148.00
2018-04-10T06:39:16.363Z,12316.00
2018-04-10T06:40:16.352Z,12548.00
2018-04-10T06:41:16.343Z,12768.00
2018-04-10T06:42:16.343Z,12960.00
2018-04-10T06:43:16.339Z,13096.00
2018-04-10T06:44:16.328Z,13212.00
2018-04-10T06:45:16.330Z,13368.00
2018-04-10T06:46:16.330Z,13480.00
2018-04-10T06:47:16.334Z,13688.00
2018-04-10T06:48:16.326Z,14016.00
2018-04-10T06:49:16.327Z,14388.00
2018-04-10T06:50:16.323Z,14416.00
2018-04-10T06:51:16.320Z,14436.00
2018-04-10T06:52:16.323Z,14620.00
2018-04-10T06:53:16.323Z,14676.00
2018-04-10T06:54:16.320Z,14620.00
2018-04-10T06:55:16.341Z,14520.00
2018-04-10T06:56:16.318Z,14204.00
2018-04-10T06:57:16.315Z,14132.00
2018-04-10T06:58:16.308Z,14276.00
2018-04-10T06:59:16.307Z,14284.00
2018-04-10T07:00:16.313Z,14156.00
2018-04-10T07:01:16.307Z,14396.00
2018-04-10T07:02:16.310Z,14312.00
2018-04-10T07:03:16.316Z,14332.00
2018-04-10T07:04:16.294Z,14440.00
2018-04-10T07:05:16.311Z,14528.00
2018-04-10T07:06:16.300Z,14616.00
2018-04-10T07:07:16.311Z,14840.00
2018-04-10T07:08:16.306Z,14940.00
2018-04-10T07:09:16.299Z,15156.00
2018-04-10T07:10:16.300Z,15144.00
2018-04-10T07:11:16.329Z,15540.00
2018-04-10T07:12:16.322Z,15756.00
2018-04-10T07:13:16.326Z,16096.00
2018-04-10T07:14:16.302Z,15888.00
2018-04-10T07:15:16.310Z,16448.00
2018-04-10T07:16:16.299Z,16640.00
2018-04-10T07:17:16.295Z,16896.00
2018-04-10T07:18:16.288Z,17248.00
2018-04-10T07:19:16.326Z,17536.00
2018-04-10T07:20:16.298Z,18560.00
2018-04-10T07:21:16.297Z,18432.00
2018-04-10T07:22:16.299Z,18528.00
2018-04-10T07:23:16.307Z,18624.00
2018-04-10T07:24:16.302Z,18208.00
2018-04-10T07:25:16.294Z,18432.00
2018-04-10T07:26:16.292Z,18880.00
2018-04-10T07:27:16.303Z,19040.00
2018-04-10T07:28:16.313Z,19840.00
2018-04-10T07:29:16.295Z,20544.00
2018-04-10T07:30:16.293Z,21600.00
2018-04-10T07:31:16.296Z,22784.00
2018-04-10T07:32:16.300Z,23808.00
2018-04-10T07:33:16.302Z,24736.00
2018-04-10T07:34:16.305Z,25280.00
2018-04-10T07:35:16.308Z,24128.00
2018-04-10T07:36:16.304Z,23616.00
2018-04-10T07:37:16.308Z,24928.00
2018-04-10T07:38:16.307Z,23872.00
2018-04-10T07:39:16.299Z,24192.00
2018-04-10T07:40:16.310Z,24032.00
2018-04-10T07:41:16.352Z,24896.00
2018-04-10T07:42:16.318Z,24576.00
2018-04-10T07:43:16.375Z,25248.00
2018-04-10T07:44:16.316Z,25472.00
2018-04-10T07:45:16.332Z,25856.00
2018-04-10T07:46:16.331Z,25888.00
2018-04-10T07:47:16.328Z,26496.00
2018-04-10T07:48:16.326Z,27712.00
2018-04-10T07:49:16.342Z,28608.00
2018-04-10T07:50:16.348Z,29568.00
2018-04-10T07:51:16.365Z,29408.00
2018-04-10T07:52:16.350Z,28448.00
2018-04-10T07:53:16.361Z,30624.00
2018-04-10T07:54:16.364Z,30880.00
2018-04-10T07:55:16.365Z,32256.00
2018-04-10T07:56:16.366Z,32800.00
2018-04-10T07:57:16.373Z,32384.00
2018-04-10T07:58:16.379Z,32352.00
2018-04-10T07:59:16.383Z,33888.00
2018-04-10T08:00:16.409Z,35136.00
2018-04-10T08:01:16.400Z,35424.00
2018-04-10T08:02:16.396Z,36928.00
2018-04-10T08:03:16.415Z,35936.00
2018-04-10T08:04:16.420Z,36640.00
2018-04-10T08:05:16.415Z,35552.00
2018-04-10T08:06:16.429Z,36864.00
2018-04-10T08:07:16.440Z,37568.00
2018-04-10T08:08:16.444Z,38848.00
2018-04-10T08:09:16.492Z,38272.00
2018-04-10T08:10:16.462Z,38848.00
2018-04-10T08:11:16.461Z,39488.00
2018-04-10T08:12:16.475Z,41248.00
2018-04-10T08:13:16.488Z,41248.00
2018-04-10T08:14:16.490Z,41184.00
2018-04-10T08:15:16.518Z,41600.00
2018-04-10T08:16:16.509Z,41888.00
2018-04-10T08:17:16.518Z,41376.00
2018-04-10T08:18:16.515Z,42048.00
2018-04-10T08:19:16.533Z,42592.00
2018-04-10T08:20:16.541Z,43296.00
2018-04-10T08:21:16.543Z,46656.00
2018-04-10T08:22:16.566Z,50016.00
2018-04-10T08:23:16.559Z,47776.00
2018-04-10T08:24:16.571Z,49216.00
2018-04-10T08:25:16.595Z,50432.00
2018-04-10T08:26:16.586Z,49504.00
2018-04-10T08:27:16.603Z,51104.00
2018-04-10T08:28:16.613Z,54336.00
2018-04-10T08:29:16.617Z,54528.00
2018-04-10T08:30:16.636Z,52800.00
2018-04-10T08:31:16.645Z,52928.00
2018-04-10T08:32:16.653Z,55488.00
2018-04-10T08:33:16.651Z,58720.00
2018-04-10T08:34:16.687Z,60160.00
2018-04-10T08:35:16.693Z,58752.00
2018-04-10T08:36:16.692Z,57184.00
2018-04-10T08:37:16.703Z,60512.00
2018-04-10T08:38:16.717Z,63712.00
2018-04-10T08:39:16.780Z,62816.00
2018-04-10T08:40:16.742Z,63520.00
2018-04-10T08:41:16.753Z,64160.00
2018-04-10T08:42:16.764Z,64608.00
2018-04-10T08:43:16.778Z,65152.00
2018-04-10T08:44:16.795Z,66432.00
2018-04-10T08:45:16.802Z,67680.00
2018-04-10T08:46:16.820Z,66560.00
2018-04-10T08:47:16.834Z,66464.00
2018-04-10T08:48:16.844Z,66528.00
2018-04-10T08:49:16.877Z,63584.00
2018-04-10T08:50:16.868Z,67904.00
2018-04-10T08:51:16.882Z,68352.00
2018-04-10T08:52:16.895Z,68224.00
2018-04-10T08:53:16.912Z,69984.00
2018-04-10T08:54:16.934Z,73600.00
2018-04-10T08:55:16.934Z,71424.00
2018-04-10T08:56:16.953Z,72096.00
2018-04-10T08:57:17.050Z,72192.00
2018-04-10T08:58:16.973Z,70112.00
2018-04-10T08:59:16.980Z,69824.00
2018-04-10T09:00:17.001Z,73120.00
2018-04-10T09:01:17.022Z,72352.00
2018-04-10T09:02:17.051Z,73408.00
2018-04-10T09:03:17.128Z,72992.00
2018-04-10T09:04:17.064Z,72576.00
2018-04-10T09:05:17.078Z,72896.00
2018-04-10T09:06:17.085Z,73344.00
2018-04-10T09:07:17.096Z,62336.00
2018-04-10T09:08:17.107Z,59392.00
2018-04-10T09:09:17.175Z,75008.00
2018-04-10T09:10:17.138Z,79168.00
2018-04-10T09:11:17.161Z,75616.00
2018-04-10T09:12:17.180Z,73984.00
2018-04-10T09:13:17.186Z,75136.00
2018-04-10T09:14:17.203Z,77312.00
2018-04-10T09:15:17.220Z,75104.00
2018-04-10T09:16:17.276Z,77024.00
2018-04-10T09:17:17.244Z,78848.00
2018-04-10T09:18:17.285Z,80192.00
2018-04-10T09:19:17.274Z,81120.00
2018-04-10T09:20:17.293Z,79232.00
2018-04-10T09:21:17.316Z,79680.00
2018-04-10T09:22:17.318Z,82976.00
2018-04-10T09:23:17.339Z,81728.00
2018-04-10T09:24:17.350Z,80992.00
2018-04-10T09:25:17.363Z,81120.00
2018-04-10T09:26:17.374Z,79520.00
2018-04-10T09:27:17.418Z,79264.00
2018-04-10T09:28:17.430Z,81024.00
2018-04-10T09:29:17.421Z,82112.00
2018-04-10T09:30:17.442Z,80608.00
2018-04-10T09:31:17.456Z,80064.00
2018-04-10T09:32:17.475Z,79904.00
2018-04-10T09:33:17.481Z,79488.00
2018-04-10T09:34:17.499Z,78400.00
2018-04-10T09:35:17.520Z,66272.00
2018-04-10T09:36:17.529Z,36064.00
2018-04-10T09:37:17.544Z,25984.00
2018-04-10T09:38:17.562Z,35968.00
2018-04-10T09:39:17.574Z,37760.00
2018-04-10T09:41:17.617Z,35680.00
2018-04-10T09:42:17.622Z,36064.00
2018-04-10T09:43:17.624Z,42560.00
2018-04-10T09:44:17.647Z,50048.00
2018-04-10T09:45:17.665Z,63328.00
2018-04-10T09:46:17.665Z,71008.00
2018-04-10T09:47:17.678Z,76192.00
2018-04-10T09:48:17.684Z,82848.00
2018-04-10T09:49:17.691Z,83680.00
2018-04-10T09:50:17.713Z,73376.00
2018-04-10T09:51:17.742Z,30528.00
2018-04-10T09:52:17.734Z,58272.00
2018-04-10T09:53:17.744Z,42144.00
2018-04-10T09:54:17.757Z,59616.00
2018-04-10T09:55:17.764Z,64512.00
2018-04-10T09:56:17.782Z,74496.00
2018-04-10T09:57:17.797Z,72864.00
2018-04-10T09:58:17.798Z,73984.00
2018-04-10T09:59:17.817Z,82144.00
2018-04-10T10:00:17.830Z,81760.00
2018-04-10T10:01:17.832Z,79936.00
2018-04-10T10:02:17.852Z,77120.00
2018-04-10T10:03:17.864Z,76416.00
2018-04-10T10:04:17.876Z,77856.00
2018-04-10T10:05:17.886Z,81440.00
2018-04-10T10:06:17.900Z,79360.00
2018-04-10T10:07:17.919Z,83072.00
2018-04-10T10:08:17.926Z,83776.00
2018-04-10T10:09:17.941Z,79584.00
2018-04-10T10:10:17.991Z,66112.00
2018-04-10T10:11:17.971Z,74560.00
2018-04-10T10:12:17.991Z,71424.00
2018-04-10T10:13:17.997Z,81920.00
2018-04-10T10:14:18.009Z,83136.00
2018-04-10T10:15:18.027Z,74816.00
2018-04-10T10:16:18.047Z,71360.00
2018-04-10T10:17:18.064Z,74368.00
2018-04-10T10:18:18.083Z,78816.00
2018-04-10T10:19:18.089Z,78368.00
2018-04-10T10:20:18.108Z,77152.00
2018-04-10T10:21:18.124Z,79552.00
2018-04-10T10:22:18.132Z,74400.00
2018-04-10T10:23:18.153Z,82336.00
2018-04-10T10:24:18.164Z,83808.00
2018-04-10T10:25:18.186Z,80096.00
2018-04-10T10:26:18.192Z,82976.00
2018-04-10T10:27:18.215Z,83680.00
2018-04-10T10:28:18.227Z,85184.00
2018-04-10T10:29:18.252Z,85600.00
2018-04-10T10:30:18.270Z,82880.00
2018-04-10T10:31:18.280Z,82176.00
2018-04-10T10:32:18.322Z,83680.00
2018-04-10T10:33:18.316Z,83744.00
2018-04-10T10:34:18.333Z,82496.00
2018-04-10T10:35:18.363Z,78208.00
2018-04-10T10:36:18.377Z,76192.00
2018-04-10T10:37:18.403Z,74944.00
2018-04-10T10:38:18.403Z,73504.00
2018-04-10T10:39:18.432Z,74240.00
2018-04-10T10:40:18.440Z,74016.00
2018-04-10T10:41:18.462Z,75200.00
2018-04-10T10:42:18.471Z,75552.00
2018-04-10T10:43:18.489Z,75712.00
2018-04-10T10:44:18.507Z,74816.00
2018-04-10T10:45:18.524Z,75712.00
2018-04-10T10:46:18.537Z,76192.00
2018-04-10T10:47:18.563Z,75104.00
2018-04-10T10:48:18.578Z,66784.00
2018-04-10T10:49:18.595Z,77088.00
2018-04-10T10:50:18.615Z,76864.00
2018-04-10T10:51:18.632Z,76864.00
2018-04-10T10:52:18.653Z,75200.00
2018-04-10T10:53:18.669Z,75328.00
2018-04-10T10:54:18.702Z,76544.00
2018-04-10T10:55:18.704Z,77408.00
2018-04-10T10:56:18.720Z,78304.00
2018-04-10T10:57:18.784Z,77856.00
2018-04-10T10:58:18.754Z,76864.00
2018-04-10T10:59:18.773Z,76256.00
2018-04-10T11:00:18.794Z,76960.00
2018-04-10T11:01:18.858Z,77632.00
2018-04-10T11:02:18.832Z,77888.00
2018-04-10T11:03:18.850Z,78496.00
2018-04-10T11:04:18.877Z,77632.00
2018-04-10T11:05:18.889Z,76000.00
2018-04-10T11:06:18.906Z,77024.00
2018-04-10T11:07:18.924Z,78720.00
2018-04-10T11:08:18.943Z,78336.00
2018-04-10T11:09:18.966Z,73792.00
2018-04-10T11:10:18.993Z,77280.00
2018-04-10T11:11:18.999Z,77984.00
2018-04-10T11:12:19.018Z,80448.00
2018-04-10T11:13:19.025Z,81792.00
2018-04-10T11:14:19.051Z,82656.00
2018-04-10T11:15:19.069Z,81600.00
2018-04-10T11:16:19.086Z,84608.00
2018-04-10T11:17:19.107Z,81536.00
2018-04-10T11:18:19.115Z,84704.00
2018-04-10T11:19:19.139Z,88192.00
2018-04-10T11:20:19.162Z,84256.00
2018-04-10T11:21:19.178Z,79840.00
2018-04-10T11:22:19.194Z,78912.00
2018-04-10T11:23:19.209Z,78848.00
2018-04-10T11:24:19.230Z,79072.00
2018-04-10T11:25:19.249Z,82016.00
2018-04-10T11:26:19.263Z,83616.00
2018-04-10T11:27:19.299Z,81696.00
2018-04-10T11:28:19.303Z,81632.00
2018-04-10T11:29:19.319Z,83040.00
2018-04-10T11:30:19.351Z,81472.00
2018-04-10T11:31:19.352Z,83872.00
2018-04-10T11:32:19.376Z,86080.00
2018-04-10T11:33:19.404Z,82016.00
2018-04-10T11:34:19.415Z,85696.00
2018-04-10T11:35:19.431Z,81504.00
2018-04-10T11:36:19.444Z,83392.00
2018-04-10T11:37:19.466Z,75616.00
2018-04-10T11:38:19.483Z,79392.00
2018-04-10T11:39:19.515Z,84320.00
2018-04-10T11:40:19.527Z,87360.00
2018-04-10T11:41:19.550Z,91968.00
2018-04-10T11:42:19.564Z,91776.00
2018-04-10T11:43:19.580Z,95968.00
2018-04-10T11:44:19.592Z,98208.00
2018-04-10T11:45:19.632Z,96096.00
2018-04-10T11:46:19.630Z,90816.00
2018-04-10T11:47:19.646Z,93664.00
2018-04-10T11:48:19.675Z,90944.00
2018-04-10T11:49:19.685Z,85280.00
2018-04-10T11:50:19.706Z,96768.00
2018-04-10T11:51:19.730Z,96384.00
2018-04-10T11:52:19.738Z,91296.00
2018-04-10T11:53:19.749Z,86816.00
2018-04-10T11:54:19.775Z,95456.00
2018-04-10T11:55:19.809Z,91840.00
2018-04-10T11:56:19.808Z,93088.00
2018-04-10T11:57:19.842Z,88896.00
2018-04-10T11:58:19.846Z,87616.00
2018-04-10T11:59:19.880Z,87168.00
2018-04-10T12:00:19.890Z,82624.00
2018-04-10T12:01:19.899Z,82080.00
2018-04-10T12:02:19.915Z,78656.00
2018-04-10T12:03:19.937Z,77312.00
2018-04-10T12:04:19.953Z,79648.00
2018-04-10T12:05:19.975Z,78336.00
2018-04-10T12:06:20.005Z,76256.00
2018-04-10T12:07:20.010Z,74720.00
2018-04-10T12:08:20.026Z,76320.00
2018-04-10T12:09:20.029Z,81536.00
2018-04-10T12:10:20.070Z,80928.00
2018-04-10T12:11:20.080Z,80064.00
2018-04-10T12:12:20.093Z,82976.00
2018-04-10T12:13:20.116Z,76928.00
2018-04-10T12:14:20.129Z,83168.00
2018-04-10T12:15:20.146Z,84000.00
2018-04-10T12:16:20.163Z,84224.00
2018-04-10T12:17:20.192Z,81696.00
2018-04-10T12:18:20.201Z,81536.00
2018-04-10T12:19:20.220Z,76064.00
2018-04-10T12:20:20.244Z,76128.00
2018-04-10T12:21:20.257Z,83904.00
2018-04-10T12:22:20.280Z,78944.00
2018-04-10T12:23:20.295Z,72224.00
2018-04-10T12:24:20.341Z,39680.00
2018-04-10T12:25:20.321Z,13492.00
2018-04-10T12:26:20.336Z,12504.00
2018-04-10T12:27:20.360Z,11944.00
2018-04-10T12:28:20.376Z,11596.00
2018-04-10T12:29:20.383Z,11592.00
2018-04-10T12:30:20.405Z,11704.00
2018-04-10T12:31:20.410Z,11648.00
2018-04-10T12:32:20.426Z,11596.00
2018-04-10T12:33:20.457Z,11532.00
2018-04-10T12:34:20.443Z,11704.00
2018-04-10T12:35:20.463Z,12088.00
2018-04-10T12:36:20.471Z,12268.00
2018-04-10T12:37:20.485Z,12464.00
2018-04-10T12:38:20.479Z,12412.00
2018-04-10T12:39:20.499Z,12288.00
2018-04-10T12:40:20.514Z,12240.00
2018-04-10T12:41:20.517Z,12500.00
2018-04-10T12:42:20.525Z,12672.00
2018-04-10T12:43:20.545Z,13044.00
2018-04-10T12:44:20.543Z,13372.00
2018-04-10T12:45:20.559Z,13484.00
2018-04-10T12:46:20.556Z,13548.00
2018-04-10T12:47:20.591Z,13772.00
2018-04-10T12:48:20.595Z,13876.00
2018-04-10T12:49:20.584Z,14112.00
2018-04-10T12:50:20.589Z,13540.00
2018-04-10T12:51:20.601Z,13612.00
2018-04-10T12:52:20.609Z,13556.00
2018-04-10T12:53:20.608Z,12992.00